Time;durP1;ratioP1;P1;durP2;ratioP2;P2;SDS_P1;SDS_P2;PMS_P1;PMS_P2;Temp;Humidity;BMP_temperature;BMP_pressure;BME280_temperature;BME280_humidity;BME280_pressure;Samples;Min_cycle;Max_cycle;Signal;HPM_P1;HPM_P2
2023/02/07 00:00:43;;;;;;;9.57;7.53;;;1.00;99.90;;;;;;5000888;28;20230;-71
2023/02/07 00:03:09;;;;;;;18.47;7.90;;;0.90;99.90;;;;;;5002843;28;20272;-70
2023/02/07 00:05:35;;;;;;;12.67;7.60;;;0.80;99.90;;;;;;5002761;28;20221;-71
2023/02/07 00:08:02;;;;;;;34.50;7.73;;;0.80;99.90;;;;;;4998688;28;20187;-70
2023/02/07 00:10:28;;;;;;;22.40;7.00;;;0.70;99.90;;;;;;5006362;28;20408;-70
2023/02/07 00:12:53;;;;;;;23.67;6.73;;;0.60;99.90;;;;;;5006074;28;20441;-70
2023/02/07 00:15:19;;;;;;;18.90;6.90;;;0.50;99.90;;;;;;5006272;28;20211;-70
2023/02/07 00:17:45;;;;;;;17.90;6.10;;;0.40;99.90;;;;;;5006398;28;20234;-71
2023/02/07 00:20:11;;;;;;;21.90;7.27;;;0.30;99.90;;;;;;5001377;28;20186;-71
2023/02/07 00:22:36;;;;;;;19.27;6.90;;;0.20;99.90;;;;;;5004186;28;20215;-71
2023/02/07 00:25:02;;;;;;;19.57;7.00;;;0.10;99.90;;;;;;5012940;28;20429;-71
2023/02/07 00:27:27;;;;;;;18.00;6.93;;;0.10;99.90;;;;;;5005128;28;20188;-71
2023/02/07 00:29:53;;;;;;;21.03;7.67;;;0.00;99.90;;;;;;5005769;28;20292;-72
2023/02/07 00:32:18;;;;;;;21.00;6.00;;;0.00;99.90;;;;;;5006323;28;20851;-71
2023/02/07 00:34:45;;;;;;;19.53;7.30;;;-0.10;99.90;;;;;;5004744;28;20172;-72
2023/02/07 00:37:11;;;;;;;19.57;6.87;;;-0.10;99.90;;;;;;5002540;28;20177;-70
2023/02/07 00:39:37;;;;;;;22.80;8.00;;;-0.20;99.90;;;;;;5002959;28;20469;-71
2023/02/07 00:42:03;;;;;;;16.53;6.17;;;-0.20;99.90;;;;;;5003845;28;20211;-70
2023/02/07 00:44:28;;;;;;;16.00;7.23;;;-0.20;99.90;;;;;;4985063;28;20502;-70
2023/02/07 00:46:54;;;;;;;13.60;6.10;;;-0.30;99.90;;;;;;5004617;28;20977;-71
2023/02/07 00:49:21;;;;;;;16.80;7.00;;;-0.30;99.90;;;;;;4999846;28;20218;-70
2023/02/07 00:51:46;;;;;;;15.50;5.77;;;-0.40;99.90;;;;;;5010272;28;20207;-73
2023/02/07 00:54:12;;;;;;;18.47;7.40;;;-0.40;99.90;;;;;;4984893;28;20430;-70
2023/02/07 00:56:37;;;;;;;16.33;6.70;;;-0.40;99.90;;;;;;4984903;28;20180;-69
2023/02/07 00:59:03;;;;;;;12.50;6.27;;;-0.50;99.90;;;;;;5005571;28;20180;-70
2023/02/07 01:01:29;;;;;;;14.33;7.00;;;-0.50;99.90;;;;;;5005695;28;20230;-72
2023/02/07 01:03:54;;;;;;;17.27;7.87;;;-0.50;99.90;;;;;;4987784;28;20180;-70
2023/02/07 01:06:20;;;;;;;17.27;8.30;;;-0.50;99.90;;;;;;5005808;28;20244;-70
2023/02/07 01:08:46;;;;;;;20.60;7.73;;;-0.50;99.90;;;;;;5005930;28;20699;-70
2023/02/07 01:11:15;;;;;;;19.07;8.67;;;-0.60;99.90;;;;;;5005750;28;20439;-71
2023/02/07 01:13:44;;;;;;;20.20;8.47;;;-0.60;99.90;;;;;;4998111;28;20176;-70
2023/02/07 01:16:21;;;;;;;17.80;8.17;;;-0.60;99.90;;;;;;5009483;28;20900;-71
2023/02/07 01:18:47;;;;;;;16.70;8.20;;;-0.60;99.90;;;;;;5009461;28;20420;-70
2023/02/07 01:21:18;;;;;;;22.83;8.83;;;-0.70;99.90;;;;;;4981210;28;20413;-70
2023/02/07 01:23:44;;;;;;;18.60;9.23;;;-0.70;99.90;;;;;;5005351;28;20774;-70
2023/02/07 01:26:10;;;;;;;19.57;9.30;;;-0.80;99.90;;;;;;5005139;28;20422;-71
2023/02/07 01:28:35;;;;;;;20.33;9.70;;;-0.80;99.90;;;;;;5005801;28;20217;-69
2023/02/07 01:31:07;;;;;;;17.97;9.13;;;-0.80;99.90;;;;;;5001988;28;20212;-70
2023/02/07 01:33:33;;;;;;;20.10;9.37;;;-0.80;99.90;;;;;;5001949;28;20260;-72
2023/02/07 01:35:58;;;;;;;17.97;8.80;;;-0.80;99.90;;;;;;5001667;28;20518;-70
2023/02/07 01:38:24;;;;;;;14.93;9.00;;;-0.90;99.90;;;;;;4999966;28;20206;-71
2023/02/07 01:40:49;;;;;;;19.40;9.10;;;-0.90;99.90;;;;;;4995492;28;20629;-71
2023/02/07 01:43:19;;;;;;;20.77;9.60;;;-0.90;99.90;;;;;;4998834;28;20174;-70
2023/02/07 01:45:44;;;;;;;19.43;9.10;;;-0.90;99.90;;;;;;5003980;28;20526;-70
2023/02/07 01:48:15;;;;;;;16.73;9.57;;;-0.90;99.90;;;;;;5001436;28;20448;-70
2023/02/07 01:50:44;;;;;;;17.60;9.10;;;-0.90;99.90;;;;;;4993854;28;20172;-71
2023/02/07 01:53:13;;;;;;;20.47;10.90;;;-0.90;99.90;;;;;;5004733;28;20445;-71
2023/02/07 01:55:40;;;;;;;21.07;10.40;;;-0.80;99.90;;;;;;5004605;28;20392;-71
2023/02/07 01:58:06;;;;;;;18.00;10.37;;;-0.80;99.90;;;;;;5004807;28;20442;-70
2023/02/07 03:31:12;;;;;;;18.23;12.10;;;-1.60;99.90;;;;;;5742850;22;20554;-70
2023/02/07 03:33:38;;;;;;;31.80;13.93;;;-1.60;99.90;;;;;;4982825;28;20775;-72
2023/02/07 03:36:22;;;;;;;24.10;13.10;;;-1.60;99.90;;;;;;4981184;28;20429;-72
2023/02/07 03:38:48;;;;;;;17.47;11.23;;;-1.60;99.90;;;;;;4974015;28;20432;-72
2023/02/07 03:41:42;;;;;;;24.30;14.53;;;-1.60;99.90;;;;;;4982701;28;20474;-72
2023/02/07 03:44:09;;;;;;;26.73;15.37;;;-1.70;99.90;;;;;;4991615;28;20431;-72
2023/02/07 03:46:36;;;;;;;22.17;14.07;;;-1.70;99.90;;;;;;4989542;28;20523;-72
2023/02/07 03:49:02;;;;;;;25.23;14.40;;;-1.70;99.90;;;;;;4967201;28;21068;-72
2023/02/07 03:51:28;;;;;;;26.23;14.77;;;-1.80;99.90;;;;;;4988356;28;20425;-73
2023/02/07 03:53:53;;;;;;;20.63;14.17;;;-1.80;99.90;;;;;;4994095;28;20417;-71
2023/02/07 03:56:19;;;;;;;25.43;13.90;;;-1.80;99.90;;;;;;4994546;28;20206;-70
2023/02/07 03:58:44;;;;;;;23.40;14.50;;;-1.90;99.90;;;;;;4994647;28;20219;-69
2023/02/07 04:01:10;;;;;;;30.73;15.23;;;-1.90;99.90;;;;;;4994123;28;20210;-70
2023/02/07 04:03:35;;;;;;;30.23;14.07;;;-1.90;99.90;;;;;;4994996;28;20195;-70
2023/02/07 04:06:01;;;;;;;29.33;14.40;;;-2.00;99.90;;;;;;4986615;28;20203;-70
2023/02/07 04:08:26;;;;;;;28.70;13.30;;;-2.00;99.90;;;;;;4994523;28;20293;-70
2023/02/07 04:11:00;;;;;;;35.27;13.90;;;-2.10;99.90;;;;;;4994001;28;20270;-70
2023/02/07 04:13:26;;;;;;;30.67;14.13;;;-2.10;99.90;;;;;;4986317;28;20214;-69
2023/02/07 04:15:52;;;;;;;29.83;14.63;;;-2.10;99.90;;;;;;4993922;28;20438;-70
2023/02/07 04:18:17;;;;;;;29.30;14.90;;;-2.10;99.90;;;;;;4994099;28;20431;-70
2023/02/07 04:20:43;;;;;;;31.33;15.50;;;-2.10;99.90;;;;;;4987118;28;20246;-70
2023/02/07 04:23:09;;;;;;;25.30;15.10;;;-2.10;99.90;;;;;;4985574;28;20245;-70
2023/02/07 04:25:34;;;;;;;27.63;14.80;;;-2.10;99.90;;;;;;4993928;28;20210;-70
2023/02/07 04:27:59;;;;;;;27.00;14.53;;;-2.20;99.90;;;;;;4993605;28;20272;-70
2023/02/07 04:30:25;;;;;;;24.77;13.27;;;-2.20;99.90;;;;;;4985669;28;20219;-70
2023/02/07 04:32:50;;;;;;;25.20;15.20;;;-2.20;99.90;;;;;;4985739;28;20295;-70
2023/02/07 04:35:16;;;;;;;26.73;14.70;;;-2.30;99.90;;;;;;4982486;28;20625;-71
2023/02/07 04:37:42;;;;;;;28.50;13.83;;;-2.30;99.90;;;;;;4989542;28;20194;-71
2023/02/07 04:40:08;;;;;;;26.03;13.57;;;-2.20;99.90;;;;;;4992392;28;20206;-70
2023/02/07 04:42:33;;;;;;;28.10;14.60;;;-2.30;99.90;;;;;;4992843;28;20663;-70
2023/02/07 04:44:59;;;;;;;28.73;13.80;;;-2.30;99.90;;;;;;4992940;28;20431;-70
2023/02/07 04:47:24;;;;;;;29.87;14.33;;;-2.30;99.90;;;;;;4993183;28;20245;-70
2023/02/07 04:49:50;;;;;;;23.90;14.67;;;-2.30;99.90;;;;;;4993068;28;20226;-70
2023/02/07 04:52:15;;;;;;;28.13;14.47;;;-2.30;99.90;;;;;;4993278;28;20207;-70
2023/02/07 04:54:41;;;;;;;27.80;14.43;;;-2.30;99.90;;;;;;4991904;28;20209;-70
2023/02/07 04:57:06;;;;;;;33.07;15.40;;;-2.40;99.90;;;;;;4990951;28;20730;-70
2023/02/07 04:59:32;;;;;;;25.57;13.10;;;-2.40;99.90;;;;;;4974311;28;20200;-70
2023/02/07 05:01:57;;;;;;;24.00;13.27;;;-2.40;99.90;;;;;;4982478;28;20693;-71
2023/02/07 05:04:23;;;;;;;25.80;13.33;;;-2.40;99.90;;;;;;4992980;28;20195;-70
2023/02/07 05:06:48;;;;;;;30.20;14.77;;;-2.40;99.90;;;;;;4992944;28;20203;-70
2023/02/07 05:09:14;;;;;;;28.00;14.33;;;-2.40;99.90;;;;;;4992641;28;20211;-70
2023/02/07 05:11:39;;;;;;;24.93;13.03;;;-2.40;99.90;;;;;;4985142;28;20257;-70
2023/02/07 05:14:05;;;;;;;24.27;13.97;;;-2.40;99.90;;;;;;4992611;28;20646;-70
2023/02/07 05:16:30;;;;;;;24.90;13.60;;;-2.40;99.90;;;;;;4992756;28;20558;-71
2023/02/07 05:18:56;;;;;;;28.33;15.20;;;-2.40;99.90;;;;;;4992503;28;20270;-71
2023/02/07 05:21:21;;;;;;;28.57;13.33;;;-2.40;99.90;;;;;;4992803;28;20276;-71
2023/02/07 05:23:47;;;;;;;24.73;12.80;;;-2.40;99.90;;;;;;4992622;28;20195;-71
2023/02/07 05:26:13;;;;;;;28.43;13.90;;;-2.40;99.90;;;;;;4992329;28;20194;-70
2023/02/07 05:28:39;;;;;;;27.07;12.57;;;-2.40;99.90;;;;;;4984829;28;20259;-70
2023/02/07 05:31:04;;;;;;;28.23;13.40;;;-2.40;99.90;;;;;;4991958;28;20437;-70
2023/02/07 05:33:30;;;;;;;27.90;15.10;;;-2.40;99.90;;;;;;4992292;28;20179;-71
2023/02/07 05:35:55;;;;;;;21.13;11.90;;;-2.40;99.90;;;;;;4984371;28;20194;-70
2023/02/07 05:38:21;;;;;;;25.43;12.97;;;-2.50;99.90;;;;;;4992514;28;20191;-70
2023/02/07 05:40:47;;;;;;;24.40;13.93;;;-2.50;99.90;;;;;;4992401;28;20215;-71
2023/02/07 05:43:13;;;;;;;23.17;13.50;;;-2.50;99.90;;;;;;4992214;28;20200;-71
2023/02/07 05:45:39;;;;;;;25.80;12.23;;;-2.50;99.90;;;;;;4986135;28;20792;-71
2023/02/07 05:48:05;;;;;;;25.83;12.47;;;-2.50;99.90;;;;;;4990265;28;20441;-71
2023/02/07 05:50:30;;;;;;;20.67;11.77;;;-2.50;99.90;;;;;;4984312;28;20207;-70
2023/02/07 05:52:56;;;;;;;27.63;13.87;;;-2.50;99.90;;;;;;4991982;28;20433;-70
2023/02/07 05:55:21;;;;;;;28.50;15.30;;;-2.50;99.90;;;;;;4984448;28;20591;-71
2023/02/07 05:57:47;;;;;;;27.97;15.23;;;-2.50;99.90;;;;;;4992104;28;20248;-71
2023/02/07 06:00:15;;;;;;;27.37;16.53;;;-2.50;99.90;;;;;;4984142;28;20211;-71
2023/02/07 06:02:41;;;;;;;26.27;14.93;;;-2.50;99.90;;;;;;4978052;28;20207;-71
2023/02/07 06:05:09;;;;;;;26.73;14.30;;;-2.60;99.90;;;;;;4989493;28;20437;-71
2023/02/07 06:07:35;;;;;;;24.40;12.17;;;-2.60;99.90;;;;;;4991891;28;20440;-70
2023/02/07 06:10:02;;;;;;;21.90;12.50;;;-2.70;99.90;;;;;;4991570;28;20467;-71
2023/02/07 06:12:27;;;;;;;26.53;14.87;;;-2.70;99.90;;;;;;4991797;28;20465;-71
2023/02/07 06:14:53;;;;;;;28.57;14.13;;;-2.70;99.90;;;;;;4983954;28;20856;-70
2023/02/07 06:17:18;;;;;;;22.60;13.37;;;-2.80;99.90;;;;;;4988556;28;20194;-71
2023/02/07 06:19:44;;;;;;;21.43;12.13;;;-2.80;99.90;;;;;;4988623;28;20290;-71
2023/02/07 06:22:09;;;;;;;25.23;14.47;;;-2.80;99.90;;;;;;4994507;28;20246;-70
2023/02/07 06:24:35;;;;;;;20.43;13.80;;;-2.70;99.90;;;;;;4995665;28;20252;-71
2023/02/07 06:27:00;;;;;;;20.23;12.30;;;-2.70;99.90;;;;;;4992668;28;20200;-71
2023/02/07 06:29:26;;;;;;;43.27;12.90;;;-2.70;99.90;;;;;;4983289;28;20257;-71
2023/02/07 06:31:51;;;;;;;42.60;11.40;;;-2.70;99.90;;;;;;4983953;28;20719;-70
2023/02/07 06:34:17;;;;;;;47.93;13.37;;;-2.60;99.90;;;;;;4990531;28;20639;-71
2023/02/07 06:36:43;;;;;;;44.93;13.57;;;-2.60;99.90;;;;;;4990829;28;20196;-71
2023/02/07 06:39:09;;;;;;;47.97;12.23;;;-2.60;99.90;;;;;;4990499;28;20199;-71
2023/02/07 06:41:34;;;;;;;47.83;13.07;;;-2.70;99.90;;;;;;4983382;28;20211;-70
2023/02/07 06:44:00;;;;;;;49.20;14.03;;;-2.60;99.90;;;;;;4990721;28;20206;-70
2023/02/07 06:46:25;;;;;;;47.33;11.77;;;-2.60;99.90;;;;;;4979823;28;20612;-70
2023/02/07 06:48:51;;;;;;;42.47;12.33;;;-2.60;99.90;;;;;;4986644;28;20242;-71
2023/02/07 06:51:16;;;;;;;40.10;11.50;;;-2.70;99.90;;;;;;4990752;28;20219;-71
2023/02/07 06:53:42;;;;;;;37.83;12.10;;;-2.60;99.90;;;;;;4984728;28;20207;-69
2023/02/07 06:56:08;;;;;;;38.87;12.20;;;-2.60;99.90;;;;;;4981073;28;20206;-70
2023/02/07 06:58:33;;;;;;;37.60;12.93;;;-2.60;99.90;;;;;;4990999;28;20190;-70
2023/02/07 07:01:02;;;;;;;42.07;14.00;;;-2.50;99.90;;;;;;4990820;28;20230;-70
2023/02/07 07:03:28;;;;;;;32.40;11.80;;;-2.60;99.90;;;;;;4990707;28;20258;-69
2023/02/07 07:05:54;;;;;;;31.53;12.57;;;-2.60;99.90;;;;;;4991040;28;20423;-70
2023/02/07 07:08:20;;;;;;;31.20;10.60;;;-2.60;99.90;;;;;;4982832;28;20195;-71
2023/02/07 07:10:46;;;;;;;27.83;11.13;;;-2.50;99.90;;;;;;4990933;28;20465;-70
2023/02/07 07:13:11;;;;;;;33.60;12.17;;;-2.60;99.90;;;;;;4983123;28;20206;-70
2023/02/07 07:15:37;;;;;;;29.60;13.00;;;-2.60;99.90;;;;;;4990422;28;20541;-70
2023/02/07 07:18:02;;;;;;;25.73;11.07;;;-2.50;99.90;;;;;;4984586;28;20195;-71
2023/02/07 07:20:28;;;;;;;28.97;11.10;;;-2.60;99.90;;;;;;4994783;28;20198;-70
2023/02/07 07:22:53;;;;;;;29.90;12.50;;;-2.50;99.90;;;;;;4987298;28;20206;-70
2023/02/07 07:25:19;;;;;;;25.87;11.70;;;-2.50;99.90;;;;;;4991981;28;20217;-70
2023/02/07 07:27:45;;;;;;;26.90;10.57;;;-2.40;99.90;;;;;;4989490;28;20563;-70
2023/02/07 07:30:11;;;;;;;31.77;12.80;;;-2.30;99.90;;;;;;4986818;28;20271;-70
2023/02/07 07:32:37;;;;;;;31.90;11.97;;;-2.20;99.90;;;;;;4994502;28;20458;-71
2023/02/07 07:35:03;;;;;;;25.57;10.57;;;-2.10;99.90;;;;;;4994162;28;20405;-71
2023/02/07 07:37:29;;;;;;;25.13;11.50;;;-1.70;99.90;;;;;;4994216;28;20439;-71
2023/02/07 07:39:55;;;;;;;27.50;9.57;;;-0.60;99.90;;;;;;4994794;28;20447;-71
2023/02/07 07:42:20;;;;;;;29.47;11.10;;;0.80;99.90;;;;;;4986775;28;20837;-71
2023/02/07 07:44:46;;;;;;;28.20;10.13;;;2.40;99.90;;;;;;4988294;28;20204;-70
2023/02/07 07:47:12;;;;;;;29.67;9.87;;;4.00;99.90;;;;;;4992380;28;20287;-71
2023/02/07 07:49:38;;;;;;;125.07;28.70;;;5.30;99.90;;;;;;4994366;28;20294;-72
2023/02/07 07:52:04;;;;;;;135.57;41.47;;;6.30;99.90;;;;;;4993899;28;20619;-71
2023/02/07 07:54:29;;;;;;;129.20;44.67;;;7.20;99.90;;;;;;4994185;28;20187;-71
2023/02/07 07:56:55;;;;;;;114.43;22.07;;;7.90;99.90;;;;;;4987497;28;20196;-71
2023/02/07 07:59:20;;;;;;;312.53;163.50;;;8.50;99.90;;;;;;4985643;28;20211;-70
2023/02/07 08:01:46;;;;;;;105.43;18.97;;;9.10;99.90;;;;;;4970917;28;20230;-72
2023/02/07 08:04:11;;;;;;;85.10;12.90;;;9.90;99.90;;;;;;4984079;28;20207;-72
2023/02/07 08:06:37;;;;;;;1999.90;999.90;;;10.10;99.90;;;;;;4994017;28;20651;-71
2023/02/07 08:09:02;;;;;;;1999.90;999.90;;;10.70;99.90;;;;;;4986055;28;20227;-71
2023/02/07 08:11:28;;;;;;;14.30;11.17;;;10.40;99.90;;;;;;4994057;28;20218;-72
2023/02/07 08:13:53;;;;;;;12.80;9.40;;;10.40;99.90;;;;;;4993926;28;20202;-72
2023/02/07 08:16:19;;;;;;;14.03;9.87;;;10.20;99.90;;;;;;4993659;28;20199;-71
2023/02/07 08:18:45;;;;;;;15.43;12.77;;;9.70;99.90;;;;;;4993799;28;20227;-72
2023/02/07 08:21:10;;;;;;;13.30;10.97;;;8.60;99.90;;;;;;4993344;28;20250;-72
2023/02/07 08:23:36;;;;;;;14.37;11.27;;;7.60;99.90;;;;;;4989406;28;20227;-71
2023/02/07 08:26:03;;;;;;;13.97;10.37;;;6.50;99.90;;;;;;4990481;28;20213;-72
2023/02/07 08:28:29;;;;;;;15.23;10.70;;;5.90;99.90;;;;;;4985572;28;20448;-71
2023/02/07 08:30:59;;;;;;;15.17;10.30;;;5.70;99.90;;;;;;4993538;28;20451;-71
2023/02/07 08:33:24;;;;;;;14.97;10.30;;;5.40;99.90;;;;;;4985488;28;20190;-71
2023/02/07 08:35:50;;;;;;;17.10;10.30;;;5.00;99.90;;;;;;4987485;28;20428;-70
2023/02/07 08:38:15;;;;;;;13.90;9.67;;;4.70;99.90;;;;;;4991696;28;20654;-71
2023/02/07 08:40:41;;;;;;;11.00;8.43;;;3.60;99.90;;;;;;4993427;28;20743;-71
2023/02/07 08:43:11;;;;;;;11.87;8.60;;;3.30;99.90;;;;;;4985481;28;20539;-70
2023/02/07 08:45:39;;;;;;;11.33;9.33;;;3.20;99.90;;;;;;4993090;28;20179;-72
2023/02/07 08:48:04;;;;;;;10.10;8.33;;;3.00;99.90;;;;;;4984963;28;20436;-71
2023/02/07 08:50:30;;;;;;;11.27;8.90;;;2.70;99.90;;;;;;4984932;28;20524;-71
2023/02/07 08:52:55;;;;;;;12.03;8.93;;;2.60;99.90;;;;;;4992861;28;20194;-71
2023/02/07 08:55:21;;;;;;;14.10;9.23;;;2.50;99.90;;;;;;4975038;28;20198;-72
2023/02/07 08:57:46;;;;;;;19.17;9.03;;;2.30;99.90;;;;;;4992869;28;20283;-71
2023/02/07 09:00:12;;;;;;;11.27;8.80;;;2.20;99.90;;;;;;4992129;28;20670;-71
2023/02/07 09:02:38;;;;;;;11.47;9.00;;;2.20;99.90;;;;;;4974310;28;20638;-70
2023/02/07 09:05:04;;;;;;;12.77;9.17;;;2.30;99.90;;;;;;4972294;28;20521;-71
2023/02/07 09:07:34;;;;;;;21.53;9.90;;;2.40;99.90;;;;;;4988968;28;20823;-73
2023/02/07 09:09:59;;;;;;;12.43;8.10;;;2.40;99.90;;;;;;4980308;28;20269;-71
2023/02/07 09:12:25;;;;;;;10.70;7.90;;;2.40;99.90;;;;;;4984382;28;20452;-71
2023/02/07 09:14:51;;;;;;;20.40;9.20;;;2.50;99.90;;;;;;4992865;28;20210;-72
2023/02/07 09:17:16;;;;;;;11.23;9.07;;;2.70;99.90;;;;;;4984895;28;20201;-72
2023/02/07 09:19:42;;;;;;;14.70;9.30;;;3.00;99.90;;;;;;4970761;28;20694;-71
2023/02/07 09:22:07;;;;;;;10.30;8.40;;;3.20;99.90;;;;;;4989585;28;20221;-70
2023/02/07 09:24:33;;;;;;;16.20;8.57;;;3.40;99.90;;;;;;4992914;28;20193;-72
2023/02/07 09:26:59;;;;;;;12.37;8.93;;;3.50;99.90;;;;;;4985202;28;20208;-72
2023/02/07 09:29:25;;;;;;;12.53;8.80;;;3.70;99.90;;;;;;4974828;28;20217;-73
2023/02/07 09:31:51;;;;;;;10.87;7.90;;;4.00;99.90;;;;;;4992787;28;20483;-73
2023/02/07 09:34:16;;;;;;;8.33;7.43;;;4.30;99.90;;;;;;4975697;28;20199;-73
2023/02/07 09:36:42;;;;;;;10.30;8.77;;;4.40;99.90;;;;;;4985991;28;20606;-74
2023/02/07 09:39:08;;;;;;;22.30;9.53;;;4.90;99.90;;;;;;4984349;28;20236;-73
2023/02/07 09:41:45;;;;;;;14.23;9.63;;;5.20;99.90;;;;;;4992285;28;20489;-72
2023/02/07 09:44:30;;;;;;;12.47;9.33;;;5.30;99.90;;;;;;4992056;28;20188;-72
2023/02/07 09:47:04;;;;;;;14.80;9.00;;;5.40;99.90;;;;;;4974975;28;20466;-71
2023/02/07 09:49:44;;;;;;;14.30;9.90;;;5.60;99.90;;;;;;4984291;28;21037;-72
2023/02/07 09:52:23;;;;;;;17.50;9.53;;;5.70;99.90;;;;;;4992181;28;21002;-70
2023/02/07 09:54:52;;;;;;;11.33;9.80;;;5.90;99.90;;;;;;4997957;28;20461;-72
2023/02/07 09:57:27;;;;;;;13.60;10.13;;;5.90;99.90;;;;;;4974459;28;20427;-72
2023/02/07 10:00:01;;;;;;;12.83;9.60;;;5.70;99.90;;;;;;4984668;28;20433;-72
2023/02/07 10:02:44;;;;;;;11.43;9.53;;;5.40;99.90;;;;;;4990796;28;20478;-72
2023/02/07 10:05:19;;;;;;;18.53;10.53;;;5.40;99.90;;;;;;4983818;28;20530;-70
2023/02/07 10:07:46;;;;;;;11.47;9.40;;;5.50;99.90;;;;;;4991880;28;20955;-72
2023/02/07 10:10:30;;;;;;;14.23;10.00;;;5.10;99.90;;;;;;4988520;28;20548;-71
2023/02/07 10:13:20;;;;;;;15.63;11.10;;;5.30;99.90;;;;;;4985989;28;20423;-72
2023/02/07 10:16:12;;;;;;;15.03;10.20;;;5.40;99.90;;;;;;4985243;28;20935;-72
2023/02/07 10:18:43;;;;;;;18.23;10.40;;;5.60;99.90;;;;;;4984372;28;20418;-72
2023/02/07 10:21:18;;;;;;;15.53;10.60;;;5.80;99.90;;;;;;4966373;28;20450;-72
2023/02/07 10:23:50;;;;;;;15.63;10.20;;;5.80;99.90;;;;;;4984949;28;20500;-73
2023/02/07 10:26:43;;;;;;;16.80;9.73;;;6.20;99.90;;;;;;4984952;28;20428;-72
2023/02/07 10:29:40;;;;;;;15.30;9.80;;;6.20;99.90;;;;;;4982148;28;20481;-72
2023/02/07 10:32:23;;;;;;;11.80;10.07;;;6.30;99.90;;;;;;4980132;28;20458;-72
2023/02/07 10:34:49;;;;;;;15.27;10.70;;;6.50;99.90;;;;;;4985282;28;20423;-71
2023/02/07 10:37:24;;;;;;;16.97;9.90;;;6.60;99.90;;;;;;4990343;28;20436;-72
2023/02/07 10:39:58;;;;;;;16.40;11.27;;;6.70;99.90;;;;;;4991332;28;20435;-72
2023/02/07 10:42:24;;;;;;;15.40;11.40;;;6.50;99.90;;;;;;4983310;28;20826;-73
2023/02/07 10:44:49;;;;;;;14.37;9.73;;;6.70;99.90;;;;;;4977546;28;20442;-72
2023/02/07 10:47:17;;;;;;;15.60;10.77;;;6.80;99.90;;;;;;4982512;28;20196;-72
2023/02/07 10:49:45;;;;;;;16.33;11.30;;;7.00;99.90;;;;;;4991308;28;20215;-72
2023/02/07 10:52:22;;;;;;;16.53;12.13;;;7.20;99.90;;;;;;4991304;28;21007;-70
2023/02/07 10:54:55;;;;;;;12.77;10.00;;;7.00;99.90;;;;;;4984486;28;20461;-72
2023/02/07 10:57:22;;;;;;;13.33;10.87;;;6.90;99.90;;;;;;4991190;28;20425;-72
2023/02/07 10:59:49;;;;;;;12.93;10.20;;;6.90;99.90;;;;;;4991298;28;20476;-71
2023/02/07 11:02:30;;;;;;;15.27;10.80;;;7.10;99.90;;;;;;4983050;28;20593;-71
2023/02/07 11:04:58;;;;;;;11.53;9.90;;;7.30;99.90;;;;;;4983346;28;20432;-70
2023/02/07 11:07:24;;;;;;;15.03;10.20;;;7.20;99.90;;;;;;4983359;28;20859;-72
2023/02/07 11:09:51;;;;;;;15.90;10.70;;;7.20;99.90;;;;;;4986318;28;20478;-72
2023/02/07 11:12:22;;;;;;;19.30;12.00;;;7.60;99.90;;;;;;4980089;28;20949;-72
2023/02/07 11:15:01;;;;;;;14.27;10.80;;;7.60;99.90;;;;;;4976622;28;20493;-72
2023/02/07 11:17:27;;;;;;;15.37;12.17;;;7.60;99.90;;;;;;4981170;28;20436;-71
2023/02/07 11:19:53;;;;;;;13.07;10.73;;;7.80;99.90;;;;;;4972059;28;20436;-75
2023/02/07 11:22:21;;;;;;;14.87;10.73;;;7.80;99.90;;;;;;4980155;28;20658;-72
2023/02/07 11:24:50;;;;;;;16.03;11.33;;;7.40;99.90;;;;;;4984087;28;20852;-71
2023/02/07 11:27:20;;;;;;;14.83;11.50;;;7.30;99.90;;;;;;4982864;28;20432;-70
2023/02/07 11:29:50;;;;;;;13.63;11.07;;;7.20;99.90;;;;;;4990861;28;20480;-70
2023/02/07 11:32:17;;;;;;;12.73;9.73;;;7.20;99.90;;;;;;4983643;28;20509;-73
2023/02/07 11:34:57;;;;;;;13.53;10.83;;;7.10;99.90;;;;;;4991005;28;20436;-73
2023/02/07 11:37:46;;;;;;;17.53;11.80;;;7.30;99.90;;;;;;4991044;28;20490;-74
2023/02/07 11:40:35;;;;;;;14.67;11.13;;;7.10;99.90;;;;;;4990616;28;20453;-73
2023/02/07 11:43:19;;;;;;;14.60;11.37;;;6.60;99.90;;;;;;4985618;28;20435;-74
2023/02/07 11:45:48;;;;;;;17.87;10.37;;;6.60;99.90;;;;;;4983626;28;20472;-70
2023/02/07 11:48:27;;;;;;;21.90;10.77;;;6.30;99.90;;;;;;4990908;28;20777;-69
2023/02/07 11:50:59;;;;;;;16.20;11.30;;;5.60;99.90;;;;;;4984738;28;20446;-70
2023/02/07 11:53:47;;;;;;;15.53;10.60;;;5.70;99.90;;;;;;4965314;28;20436;-70
2023/02/07 11:56:27;;;;;;;14.57;9.90;;;5.90;99.90;;;;;;4983231;28;20779;-71
2023/02/07 11:58:54;;;;;;;13.47;10.97;;;6.20;99.90;;;;;;4976543;28;20464;-71
2023/02/07 12:01:27;;;;;;;15.53;11.17;;;6.30;99.90;;;;;;4979939;28;20455;-70
2023/02/07 12:04:01;;;;;;;13.83;10.23;;;6.20;99.90;;;;;;4985014;28;20467;-70
2023/02/07 12:06:41;;;;;;;13.87;10.80;;;6.20;99.90;;;;;;4986015;28;20465;-70
2023/02/07 12:09:35;;;;;;;13.60;10.03;;;6.30;99.90;;;;;;4994226;28;20466;-70
2023/02/07 12:12:08;;;;;;;14.00;10.07;;;6.10;99.90;;;;;;4978017;28;21047;-70
2023/02/07 12:14:47;;;;;;;15.60;10.70;;;6.20;99.90;;;;;;4993556;28;20538;-70
2023/02/07 12:17:19;;;;;;;12.43;10.27;;;6.00;99.90;;;;;;4986310;28;20423;-70
2023/02/07 12:19:57;;;;;;;15.33;11.03;;;5.90;99.90;;;;;;4982707;28;20495;-70
2023/02/07 12:22:28;;;;;;;16.90;11.53;;;5.90;99.90;;;;;;4983504;28;20893;-72
2023/02/07 12:25:14;;;;;;;13.97;11.10;;;6.00;99.90;;;;;;4996125;28;20929;-72
2023/02/07 12:27:44;;;;;;;19.10;10.30;;;5.80;99.90;;;;;;4993481;28;20434;-73
2023/02/07 12:30:21;;;;;;;15.13;11.07;;;5.60;99.90;;;;;;4993890;28;20620;-73
2023/02/07 12:33:11;;;;;;;13.27;10.77;;;5.60;99.90;;;;;;4986399;28;20442;-73
2023/02/07 12:36:10;;;;;;;17.43;10.97;;;5.60;99.90;;;;;;4990703;28;20493;-72
2023/02/07 12:39:05;;;;;;;17.83;13.20;;;5.40;99.90;;;;;;4992590;28;20848;-72
2023/02/07 12:41:39;;;;;;;13.68;10.00;;;5.30;99.90;;;;;;4950817;28;20810;-73
2023/02/07 12:44:33;;;;;;;12.87;10.40;;;5.30;99.90;;;;;;4993668;28;20542;-73
2023/02/07 12:47:27;;;;;;;12.23;10.20;;;5.40;99.90;;;;;;4987510;28;20522;-73
2023/02/07 12:50:39;;;;;;;13.13;11.37;;;5.50;99.90;;;;;;4986766;28;20471;-73
2023/02/07 12:54:00;;;;;;;15.23;9.40;;;5.30;99.90;;;;;;4943296;28;20440;-73
2023/02/07 12:56:41;;;;;;;17.73;10.63;;;5.40;99.90;;;;;;4932816;29;20453;-71
2023/02/07 12:59:19;;;;;;;15.97;10.77;;;5.30;99.90;;;;;;4979672;28;20586;-73
2023/02/07 13:02:16;;;;;;;16.53;9.93;;;5.30;99.90;;;;;;4986500;28;20448;-71
2023/02/07 13:05:05;;;;;;;13.95;11.57;;;5.00;99.90;;;;;;4991598;28;20479;-71
2023/02/07 13:07:53;;;;;;;13.02;11.10;;;5.00;99.90;;;;;;4990312;28;20439;-72
2023/02/07 13:11:03;;;;;;;14.90;10.50;;;5.00;99.90;;;;;;4990062;28;20212;-72
2023/02/07 13:13:41;;;;;;;13.60;10.20;;;5.00;99.90;;;;;;4922590;29;20513;-72
2023/02/07 13:16:23;;;;;;;15.53;10.63;;;5.10;99.90;;;;;;4957633;28;20204;-73
2023/02/07 13:19:10;;;;;;;13.47;9.50;;;5.20;99.90;;;;;;4978858;28;20434;-72
2023/02/07 13:22:03;;;;;;;12.10;9.50;;;5.00;99.90;;;;;;4993756;28;20474;-72
2023/02/07 13:24:31;;;;;;;13.90;9.43;;;5.00;99.90;;;;;;4993270;28;20437;-71
2023/02/07 13:27:02;;;;;;;11.90;9.90;;;5.10;99.90;;;;;;4988513;28;20438;-73
2023/02/07 13:29:31;;;;;;;12.33;8.80;;;5.10;99.90;;;;;;4973958;28;20836;-72
2023/02/07 13:32:04;;;;;;;10.70;8.43;;;5.00;99.90;;;;;;4993326;28;20458;-72
2023/02/07 13:34:39;;;;;;;12.93;9.70;;;4.90;99.90;;;;;;4993055;28;20430;-72
2023/02/07 13:37:05;;;;;;;11.20;9.10;;;4.90;99.90;;;;;;4986769;28;20477;-72
2023/02/07 13:39:55;;;;;;;11.73;9.47;;;4.90;99.90;;;;;;4989728;28;20906;-72
2023/02/07 13:42:39;;;;;;;11.30;8.50;;;4.90;99.90;;;;;;4989159;28;20889;-72
2023/02/07 13:45:26;;;;;;;15.70;9.47;;;4.80;99.90;;;;;;4986949;28;20441;-72
2023/02/07 13:48:14;;;;;;;11.67;8.80;;;4.80;99.90;;;;;;4992552;28;20438;-72
2023/02/07 13:51:04;;;;;;;14.20;9.40;;;4.80;99.90;;;;;;4991892;28;20493;-73
2023/02/07 13:53:49;;;;;;;10.97;7.67;;;4.80;99.90;;;;;;4976164;28;20937;-71
2023/02/07 14:01:56;;;;;;;11.07;8.67;;;4.70;99.90;;;;;;4991541;28;20504;-72
2023/02/07 14:04:22;;;;;;;15.03;8.07;;;4.70;99.90;;;;;;4984114;28;20439;-72
2023/02/07 14:07:07;;;;;;;17.20;9.00;;;4.60;99.90;;;;;;4976249;28;20441;-72
2023/02/07 14:09:38;;;;;;;15.57;9.10;;;4.50;99.90;;;;;;4991712;28;21048;-73
2023/02/07 14:12:24;;;;;;;12.23;8.57;;;4.50;99.90;;;;;;4992135;28;20542;-72
2023/02/07 14:14:51;;;;;;;11.80;8.97;;;4.50;99.90;;;;;;4976390;28;20433;-72
2023/02/07 14:17:25;;;;;;;8.70;7.83;;;4.50;99.90;;;;;;4984942;28;20427;-72
2023/02/07 14:19:56;;;;;;;8.90;7.23;;;4.40;99.90;;;;;;4980680;28;20427;-72
2023/02/07 14:22:29;;;;;;;9.03;7.40;;;4.50;99.90;;;;;;4970921;28;20703;-71
2023/02/07 14:24:58;;;;;;;12.50;8.63;;;4.50;99.90;;;;;;4984127;28;20430;-70
2023/02/07 14:27:42;;;;;;;11.77;8.60;;;4.50;99.90;;;;;;4990340;28;20830;-71